sensor_id;sensor_type;location;lat;lon;timestamp;pressure;altitude;pressure_sealevel;temperature;humidity
80988;BME280;70452;39.386;-3.210;2023-11-18T00:02:27;95241.31;;;9.80;100.00
80988;BME280;70452;39.386;-3.210;2023-11-18T00:05:07;95240.47;;;9.80;100.00
80988;BME280;70452;39.386;-3.210;2023-11-18T00:07:41;95245.88;;;9.74;100.00
80988;BME280;70452;39.386;-3.210;2023-11-18T00:10:24;95241.13;;;9.65;100.00
80988;BME280;70452;39.386;-3.210;2023-11-18T00:13:03;95253.81;;;9.59;100.00
80988;BME280;70452;39.386;-3.210;2023-11-18T00:15:46;95246.94;;;9.51;100.00
80988;BME280;70452;39.386;-3.210;2023-11-18T00:18:15;95244.31;;;9.39;100.00
80988;BME280;70452;39.386;-3.210;2023-11-18T00:20:53;95245.91;;;9.35;100.00
80988;BME280;70452;39.386;-3.210;2023-11-18T00:23:25;95242.00;;;9.31;100.00
80988;BME280;70452;39.386;-3.210;2023-11-18T00:26:04;95242.50;;;9.28;100.00
80988;BME280;70452;39.386;-3.210;2023-11-18T00:28:41;95229.50;;;9.30;100.00
80988;BME280;70452;39.386;-3.210;2023-11-18T00:31:16;95230.06;;;9.32;100.00
80988;BME280;70452;39.386;-3.210;2023-11-18T00:33:48;95231.97;;;9.32;100.00
80988;BME280;70452;39.386;-3.210;2023-11-18T00:36:25;95233.03;;;9.31;100.00
80988;BME280;70452;39.386;-3.210;2023-11-18T00:38:59;95225.19;;;9.34;100.00
80988;BME280;70452;39.386;-3.210;2023-11-18T00:41:31;95222.41;;;9.29;100.00
80988;BME280;70452;39.386;-3.210;2023-11-18T00:44:13;95229.44;;;9.25;100.00
80988;BME280;70452;39.386;-3.210;2023-11-18T00:46:45;95225.06;;;9.24;100.00
80988;BME280;70452;39.386;-3.210;2023-11-18T00:49:22;95225.53;;;9.21;100.00
80988;BME280;70452;39.386;-3.210;2023-11-18T00:51:59;95215.75;;;9.20;100.00
80988;BME280;70452;39.386;-3.210;2023-11-18T00:54:32;95222.00;;;9.20;100.00
80988;BME280;70452;39.386;-3.210;2023-11-18T00:57:04;95225.53;;;9.21;100.00
80988;BME280;70452;39.386;-3.210;2023-11-18T00:59:36;95217.38;;;9.21;100.00
80988;BME280;70452;39.386;-3.210;2023-11-18T01:02:11;95217.38;;;9.21;100.00
80988;BME280;70452;39.386;-3.210;2023-11-18T01:04:42;95223.34;;;9.18;100.00
80988;BME280;70452;39.386;-3.210;2023-11-18T01:07:20;95223.91;;;9.20;100.00
80988;BME280;70452;39.386;-3.210;2023-11-18T01:09:57;95221.44;;;9.18;100.00
80988;BME280;70452;39.386;-3.210;2023-11-18T01:12:31;95208.09;;;9.17;100.00
80988;BME280;70452;39.386;-3.210;2023-11-18T01:15:08;95213.22;;;9.13;100.00
80988;BME280;70452;39.386;-3.210;2023-11-18T01:17:50;95219.63;;;9.07;100.00
80988;BME280;70452;39.386;-3.210;2023-11-18T01:20:25;95214.38;;;9.00;100.00
80988;BME280;70452;39.386;-3.210;2023-11-18T01:23:00;95211.81;;;8.94;100.00
80988;BME280;70452;39.386;-3.210;2023-11-18T01:25:31;95206.66;;;8.92;100.00
80988;BME280;70452;39.386;-3.210;2023-11-18T01:28:06;95202.75;;;8.88;100.00
80988;BME280;70452;39.386;-3.210;2023-11-18T01:30:44;95207.63;;;8.86;100.00
80988;BME280;70452;39.386;-3.210;2023-11-18T01:33:20;95207.31;;;8.82;100.00
80988;BME280;70452;39.386;-3.210;2023-11-18T01:35:50;95212.34;;;8.74;100.00
80988;BME280;70452;39.386;-3.210;2023-11-18T01:38:30;95207.53;;;8.64;100.00
80988;BME280;70452;39.386;-3.210;2023-11-18T01:40:56;95213.22;;;8.62;100.00
80988;BME280;70452;39.386;-3.210;2023-11-18T01:43:32;95207.53;;;8.64;100.00
80988;BME280;70452;39.386;-3.210;2023-11-18T01:46:13;95201.69;;;8.72;100.00
80988;BME280;70452;39.386;-3.210;2023-11-18T01:48:49;95200.38;;;8.75;100.00
80988;BME280;70452;39.386;-3.210;2023-11-18T01:51:22;95202.03;;;8.76;100.00
80988;BME280;70452;39.386;-3.210;2023-11-18T01:53:57;95212.34;;;8.74;100.00
80988;BME280;70452;39.386;-3.210;2023-11-18T01:56:32;95201.88;;;8.66;100.00
80988;BME280;70452;39.386;-3.210;2023-11-18T01:59:13;95201.88;;;8.66;100.00
80988;BME280;70452;39.386;-3.210;2023-11-18T02:02:08;95189.84;;;8.61;100.00
80988;BME280;70452;39.386;-3.210;2023-11-18T02:04:44;95191.00;;;8.66;100.00
80988;BME280;70452;39.386;-3.210;2023-11-18T02:07:24;95186.22;;;8.73;100.00
80988;BME280;70452;39.386;-3.210;2023-11-18T02:09:54;95183.50;;;8.73;100.00
80988;BME280;70452;39.386;-3.210;2023-11-18T02:15:09;95178.81;;;8.68;100.00
80988;BME280;70452;39.386;-3.210;2023-11-18T02:17:39;95175.59;;;8.71;100.00
80988;BME280;70452;39.386;-3.210;2023-11-18T02:20:10;95170.31;;;8.64;100.00
80988;BME280;70452;39.386;-3.210;2023-11-18T02:22:51;95174.38;;;8.62;100.00
80988;BME280;70452;39.386;-3.210;2023-11-18T02:25:32;95174.84;;;8.59;100.00
80988;BME280;70452;39.386;-3.210;2023-11-18T02:28:05;95186.03;;;8.62;100.00
80988;BME280;70452;39.386;-3.210;2023-11-18T02:30:37;95186.53;;;8.59;100.00
80988;BME280;70452;39.386;-3.210;2023-11-18T02:33:40;95187.72;;;8.35;100.00
80988;BME280;70452;39.386;-3.210;2023-11-18T02:36:36;95194.22;;;8.17;100.00
80988;BME280;70452;39.386;-3.210;2023-11-18T02:42:04;95195.41;;;8.09;100.00
80988;BME280;70452;39.386;-3.210;2023-11-18T02:44:49;95196.22;;;8.10;100.00
80988;BME280;70452;39.386;-3.210;2023-11-18T02:47:29;95196.00;;;8.11;100.00
80988;BME280;70452;39.386;-3.210;2023-11-18T02:49:59;95194.38;;;8.10;100.00
80988;BME280;70452;39.386;-3.210;2023-11-18T02:52:47;95191.56;;;8.05;100.00
80988;BME280;70452;39.386;-3.210;2023-11-18T02:55:20;95195.22;;;7.99;100.00
80988;BME280;70452;39.386;-3.210;2023-11-18T02:57:53;95192.50;;;7.99;100.00
80988;BME280;70452;39.386;-3.210;2023-11-18T03:00:32;95188.50;;;8.01;100.00
80988;BME280;70452;39.386;-3.210;2023-11-18T03:03:04;95195.66;;;8.07;100.00
80988;BME280;70452;39.386;-3.210;2023-11-18T03:05:39;95194.84;;;8.07;100.00
80988;BME280;70452;39.386;-3.210;2023-11-18T03:08:20;95200.13;;;7.85;100.00
80988;BME280;70452;39.386;-3.210;2023-11-18T03:11:07;95182.09;;;7.50;100.00
80988;BME280;70452;39.386;-3.210;2023-11-18T03:13:40;95185.84;;;7.49;100.00
80988;BME280;70452;39.386;-3.210;2023-11-18T03:16:14;95183.78;;;7.39;100.00
80988;BME280;70452;39.386;-3.210;2023-11-18T03:18:45;95179.88;;;7.35;100.00
80988;BME280;70452;39.386;-3.210;2023-11-18T03:21:23;95183.19;;;7.25;100.00
80988;BME280;70452;39.386;-3.210;2023-11-18T03:23:51;95181.88;;;7.28;100.00
80988;BME280;70452;39.386;-3.210;2023-11-18T03:26:26;95181.41;;;7.31;100.00
80988;BME280;70452;39.386;-3.210;2023-11-18T03:29:21;95175.53;;;7.34;100.00
80988;BME280;70452;39.386;-3.210;2023-11-18T03:31:54;95182.91;;;7.39;100.00
80988;BME280;70452;39.386;-3.210;2023-11-18T03:34:35;95183.56;;;7.29;100.00
80988;BME280;70452;39.386;-3.210;2023-11-18T03:37:18;95191.19;;;7.20;100.00
80988;BME280;70452;39.386;-3.210;2023-11-18T03:39:48;95177.06;;;7.06;100.00
80988;BME280;70452;39.386;-3.210;2023-11-18T03:42:26;95182.38;;;7.01;100.00
80988;BME280;70452;39.386;-3.210;2023-11-18T03:44:57;95182.66;;;6.76;100.00
80988;BME280;70452;39.386;-3.210;2023-11-18T03:47:34;95182.88;;;6.86;100.00
80988;BME280;70452;39.386;-3.210;2023-11-18T03:50:15;95176.88;;;6.84;100.00
80988;BME280;70452;39.386;-3.210;2023-11-18T03:52:50;95181.34;;;6.90;100.00
80988;BME280;70452;39.386;-3.210;2023-11-18T03:55:40;95172.38;;;6.90;100.00
80988;BME280;70452;39.386;-3.210;2023-11-18T03:58:12;95167.44;;;6.87;100.00
80988;BME280;70452;39.386;-3.210;2023-11-18T04:00:37;95163.69;;;6.76;100.00
80988;BME280;70452;39.386;-3.210;2023-11-18T04:03:11;95163.56;;;6.83;100.00
80988;BME280;70452;39.386;-3.210;2023-11-18T04:05:45;95160.97;;;6.88;100.00
80988;BME280;70452;39.386;-3.210;2023-11-18T04:08:19;95166.75;;;6.91;100.00
80988;BME280;70452;39.386;-3.210;2023-11-18T04:10:49;95163.91;;;6.86;100.00
80988;BME280;70452;39.386;-3.210;2023-11-18T04:13:40;95157.06;;;6.84;100.00
80988;BME280;70452;39.386;-3.210;2023-11-18T04:16:17;95162.50;;;6.72;100.00
80988;BME280;70452;39.386;-3.210;2023-11-18T04:18:50;95155.78;;;6.63;100.00
80988;BME280;70452;39.386;-3.210;2023-11-18T04:21:38;95162.59;;;6.65;100.00
80988;BME280;70452;39.386;-3.210;2023-11-18T04:24:07;95159.66;;;6.67;100.00
80988;BME280;70452;39.386;-3.210;2023-11-18T04:26:44;95154.34;;;6.72;100.00
80988;BME280;70452;39.386;-3.210;2023-11-18T04:29:13;95150.13;;;6.76;100.00
80988;BME280;70452;39.386;-3.210;2023-11-18T04:31:44;95153.88;;;6.87;100.00
80988;BME280;70452;39.386;-3.210;2023-11-18T04:34:16;95160.00;;;6.94;100.00
80988;BME280;70452;39.386;-3.210;2023-11-18T04:36:51;95160.47;;;6.91;100.00
80988;BME280;70452;39.386;-3.210;2023-11-18T04:39:44;95155.78;;;6.86;100.00
80988;BME280;70452;39.386;-3.210;2023-11-18T04:42:25;95154.94;;;6.86;100.00
80988;BME280;70452;39.386;-3.210;2023-11-18T04:44:57;95146.00;;;6.85;100.00
80988;BME280;70452;39.386;-3.210;2023-11-18T04:47:46;95143.28;;;6.85;100.00
80988;BME280;70452;39.386;-3.210;2023-11-18T04:50:12;95156.38;;;6.88;100.00
80988;BME280;70452;39.386;-3.210;2023-11-18T04:53:02;95152.97;;;6.93;100.00
80988;BME280;70452;39.386;-3.210;2023-11-18T04:55:42;95155.78;;;6.98;100.00
80988;BME280;70452;39.386;-3.210;2023-11-18T04:58:12;95152.69;;;7.06;100.00
80988;BME280;70452;39.386;-3.210;2023-11-18T05:00:47;95158.00;;;7.01;100.00
80988;BME280;70452;39.386;-3.210;2023-11-18T05:03:19;95163.28;;;6.96;100.00
80988;BME280;70452;39.386;-3.210;2023-11-18T05:05:45;95160.00;;;6.94;100.00
80988;BME280;70452;39.386;-3.210;2023-11-18T05:08:23;95143.16;;;6.80;100.00
80988;BME280;70452;39.386;-3.210;2023-11-18T05:10:57;95143.53;;;6.72;100.00
80988;BME280;70452;39.386;-3.210;2023-11-18T05:13:31;95141.53;;;6.67;100.00
80988;BME280;70452;39.386;-3.210;2023-11-18T05:16:15;95144.81;;;6.57;100.00
80988;BME280;70452;39.386;-3.210;2023-11-18T05:18:47;95136.47;;;6.59;100.00
80988;BME280;70452;39.386;-3.210;2023-11-18T05:21:16;95142.00;;;6.52;100.00
80988;BME280;70452;39.386;-3.210;2023-11-18T05:23:54;95135.78;;;6.52;100.00
80988;BME280;70452;39.386;-3.210;2023-11-18T05:26:24;95135.88;;;6.57;100.00
80988;BME280;70452;39.386;-3.210;2023-11-18T05:28:52;95142.81;;;6.53;100.00
80988;BME280;70452;39.386;-3.210;2023-11-18T05:31:39;95137.41;;;6.53;100.00
80988;BME280;70452;39.386;-3.210;2023-11-18T05:34:11;95139.06;;;6.54;100.00
80988;BME280;70452;39.386;-3.210;2023-11-18T05:36:40;95134.44;;;6.43;100.00
80988;BME280;70452;39.386;-3.210;2023-11-18T05:39:12;95143.78;;;6.47;100.00
80988;BME280;70452;39.386;-3.210;2023-11-18T05:41:47;95146.47;;;6.47;100.00
80988;BME280;70452;39.386;-3.210;2023-11-18T05:44:16;95151.19;;;6.40;100.00
80988;BME280;70452;39.386;-3.210;2023-11-18T05:46:47;95149.66;;;6.44;100.00
80988;BME280;70452;39.386;-3.210;2023-11-18T05:49:25;95161.06;;;6.34;100.00
80988;BME280;70452;39.386;-3.210;2023-11-18T05:52:02;95166.22;;;6.35;100.00
80988;BME280;70452;39.386;-3.210;2023-11-18T05:54:36;95164.84;;;6.33;100.00
80988;BME280;70452;39.386;-3.210;2023-11-18T05:57:13;95162.09;;;6.21;100.00
80988;BME280;70452;39.386;-3.210;2023-11-18T05:59:42;95158.69;;;6.26;100.00
80988;BME280;70452;39.386;-3.210;2023-11-18T06:02:15;95163.47;;;6.12;100.00
80988;BME280;70452;39.386;-3.210;2023-11-18T06:04:49;95172.31;;;6.07;100.00
80988;BME280;70452;39.386;-3.210;2023-11-18T06:07:26;95170.28;;;6.03;100.00
80988;BME280;70452;39.386;-3.210;2023-11-18T06:09:58;95179.13;;;6.10;100.00
80988;BME280;70452;39.386;-3.210;2023-11-18T06:12:31;95183.50;;;6.11;100.00
80988;BME280;70452;39.386;-3.210;2023-11-18T06:15:00;95195.72;;;6.13;100.00
80988;BME280;70452;39.386;-3.210;2023-11-18T06:17:30;95185.97;;;6.12;100.00
80988;BME280;70452;39.386;-3.210;2023-11-18T06:20:06;95184.53;;;6.10;100.00
80988;BME280;70452;39.386;-3.210;2023-11-18T06:22:38;95191.63;;;6.11;100.00
80988;BME280;70452;39.386;-3.210;2023-11-18T06:25:06;95188.78;;;6.06;100.00
80988;BME280;70452;39.386;-3.210;2023-11-18T06:27:43;95187.97;;;6.05;100.00
80988;BME280;70452;39.386;-3.210;2023-11-18T06:30:19;95189.28;;;6.14;100.00
80988;BME280;70452;39.386;-3.210;2023-11-18T06:32:56;95195.94;;;6.12;100.00
80988;BME280;70452;39.386;-3.210;2023-11-18T06:35:31;95195.50;;;6.15;100.00
80988;BME280;70452;39.386;-3.210;2023-11-18T06:38:12;95201.97;;;6.14;100.00
80988;BME280;70452;39.386;-3.210;2023-11-18T06:40:47;95198.09;;;6.22;100.00
80988;BME280;70452;39.386;-3.210;2023-11-18T06:43:22;95192.25;;;6.25;100.00
80988;BME280;70452;39.386;-3.210;2023-11-18T06:45:54;95196.56;;;6.26;100.00
80988;BME280;70452;39.386;-3.210;2023-11-18T06:48:28;95201.75;;;6.27;100.00
80988;BME280;70452;39.386;-3.210;2023-11-18T06:51:02;95200.81;;;6.22;100.00
80988;BME280;70452;39.386;-3.210;2023-11-18T06:53:37;95202.13;;;6.19;100.00
80988;BME280;70452;39.386;-3.210;2023-11-18T06:56:12;95199.28;;;6.14;100.00
80988;BME280;70452;39.386;-3.210;2023-11-18T06:58:43;95196.44;;;6.20;100.00
80988;BME280;70452;39.386;-3.210;2023-11-18T07:01:18;95198.69;;;6.24;100.00
80988;BME280;70452;39.386;-3.210;2023-11-18T07:03:49;95204.47;;;6.27;100.00
80988;BME280;70452;39.386;-3.210;2023-11-18T07:06:28;95210.84;;;6.33;100.00
80988;BME280;70452;39.386;-3.210;2023-11-18T07:08:59;95208.97;;;6.33;100.00
80988;BME280;70452;39.386;-3.210;2023-11-18T07:11:34;95221.28;;;6.17;100.00
80988;BME280;70452;39.386;-3.210;2023-11-18T07:14:12;95227.25;;;6.08;100.00
80988;BME280;70452;39.386;-3.210;2023-11-18T07:16:47;95228.91;;;6.09;100.00
80988;BME280;70452;39.386;-3.210;2023-11-18T07:19:19;95221.63;;;6.09;100.00
80988;BME280;70452;39.386;-3.210;2023-11-18T07:21:59;95223.38;;;6.04;100.00
80988;BME280;70452;39.386;-3.210;2023-11-18T07:24:31;95225.44;;;6.01;100.00
80988;BME280;70452;39.386;-3.210;2023-11-18T07:27:00;95235.44;;;5.52;100.00
80988;BME280;70452;39.386;-3.210;2023-11-18T07:29:37;95232.44;;;5.42;100.00
80988;BME280;70452;39.386;-3.210;2023-11-18T07:32:10;95230.34;;;5.25;100.00
80988;BME280;70452;39.386;-3.210;2023-11-18T07:34:40;95229.22;;;5.15;100.00
80988;BME280;70452;39.386;-3.210;2023-11-18T07:37:07;95238.28;;;5.20;100.00
80988;BME280;70452;39.386;-3.210;2023-11-18T07:39:45;95243.56;;;5.34;100.00
80988;BME280;70452;39.386;-3.210;2023-11-18T07:42:20;95240.41;;;5.37;100.00
80988;BME280;70452;39.386;-3.210;2023-11-18T07:44:52;95242.50;;;5.53;100.00
80988;BME280;70452;39.386;-3.210;2023-11-18T07:47:29;95244.16;;;5.54;100.00
80988;BME280;70452;39.386;-3.210;2023-11-18T07:50:13;95248.75;;;5.54;100.00
80988;BME280;70452;39.386;-3.210;2023-11-18T07:52:51;95246.34;;;5.45;100.00
80988;BME280;70452;39.386;-3.210;2023-11-18T07:55:28;95244.44;;;5.64;100.00
80988;BME280;70452;39.386;-3.210;2023-11-18T07:58:03;95256.38;;;5.75;100.00
80988;BME280;70452;39.386;-3.210;2023-11-18T08:00:49;95249.81;;;6.01;100.00
80988;BME280;70452;39.386;-3.210;2023-11-18T08:03:15;95254.63;;;5.99;100.00
80988;BME280;70452;39.386;-3.210;2023-11-18T08:05:47;95255.50;;;6.12;100.00
80988;BME280;70452;39.386;-3.210;2023-11-18T08:08:17;95271.09;;;6.28;100.00
80988;BME280;70452;39.386;-3.210;2023-11-18T08:10:52;95269.47;;;6.39;100.00
80988;BME280;70452;39.386;-3.210;2023-11-18T08:13:37;95266.38;;;6.24;100.00
80988;BME280;70452;39.386;-3.210;2023-11-18T08:16:24;95264.78;;;6.34;100.00
80988;BME280;70452;39.386;-3.210;2023-11-18T08:18:56;95265.63;;;6.47;100.00
80988;BME280;70452;39.386;-3.210;2023-11-18T08:21:27;95266.94;;;6.56;100.00
80988;BME280;70452;39.386;-3.210;2023-11-18T08:23:57;95273.47;;;6.90;100.00
80988;BME280;70452;39.386;-3.210;2023-11-18T08:26:29;95274.16;;;6.86;100.00
80988;BME280;70452;39.386;-3.210;2023-11-18T08:28:58;95273.47;;;6.90;100.00
80988;BME280;70452;39.386;-3.210;2023-11-18T08:31:30;95272.31;;;6.86;100.00
80988;BME280;70452;39.386;-3.210;2023-11-18T08:34:00;95275.25;;;6.85;100.00
80988;BME280;70452;39.386;-3.210;2023-11-18T08:36:30;95285.53;;;6.94;100.00
80988;BME280;70452;39.386;-3.210;2023-11-18T08:39:01;95284.56;;;7.01;100.00
80988;BME280;70452;39.386;-3.210;2023-11-18T08:41:42;95278.34;;;7.24;100.00
80988;BME280;70452;39.386;-3.210;2023-11-18T08:44:17;95286.47;;;7.24;100.00
80988;BME280;70452;39.386;-3.210;2023-11-18T08:46:55;95289.41;;;7.34;100.00
80988;BME280;70452;39.386;-3.210;2023-11-18T08:49:46;95298.84;;;7.96;100.00
80988;BME280;70452;39.386;-3.210;2023-11-18T08:52:20;95297.75;;;8.20;100.00
80988;BME280;70452;39.386;-3.210;2023-11-18T08:54:48;95299.22;;;8.69;100.00
80988;BME280;70452;39.386;-3.210;2023-11-18T08:57:41;95285.31;;;9.16;100.00
80988;BME280;70452;39.386;-3.210;2023-11-18T09:00:30;95294.78;;;9.47;100.00
80988;BME280;70452;39.386;-3.210;2023-11-18T09:03:26;95303.56;;;9.71;100.00
80988;BME280;70452;39.386;-3.210;2023-11-18T09:06:11;95289.13;;;9.93;100.00
80988;BME280;70452;39.386;-3.210;2023-11-18T09:09:03;95299.91;;;10.27;100.00
80988;BME280;70452;39.386;-3.210;2023-11-18T09:11:39;95302.47;;;10.34;100.00
80988;BME280;70452;39.386;-3.210;2023-11-18T09:14:10;95304.13;;;10.62;100.00
80988;BME280;70452;39.386;-3.210;2023-11-18T09:16:40;95297.19;;;10.76;100.00
80988;BME280;70452;39.386;-3.210;2023-11-18T09:19:13;95300.97;;;11.02;100.00
80988;BME280;70452;39.386;-3.210;2023-11-18T09:21:48;95299.19;;;11.18;100.00
80988;BME280;70452;39.386;-3.210;2023-11-18T09:24:27;95313.50;;;11.36;100.00
80988;BME280;70452;39.386;-3.210;2023-11-18T09:26:59;95305.13;;;11.48;100.00
80988;BME280;70452;39.386;-3.210;2023-11-18T09:29:36;95310.13;;;11.56;100.00
80988;BME280;70452;39.386;-3.210;2023-11-18T09:32:05;95308.84;;;11.74;100.00
80988;BME280;70452;39.386;-3.210;2023-11-18T09:34:37;95309.22;;;11.88;100.00
80988;BME280;70452;39.386;-3.210;2023-11-18T09:37:19;95304.13;;;12.01;100.00
80988;BME280;70452;39.386;-3.210;2023-11-18T09:39:59;95306.69;;;12.24;100.00
80988;BME280;70452;39.386;-3.210;2023-11-18T09:42:44;95308.41;;;12.40;100.00
80988;BME280;70452;39.386;-3.210;2023-11-18T09:45:19;95314.75;;;12.56;100.00
80988;BME280;70452;39.386;-3.210;2023-11-18T09:47:51;95310.72;;;12.79;96.99
80988;BME280;70452;39.386;-3.210;2023-11-18T09:50:22;95316.97;;;12.64;92.83
80988;BME280;70452;39.386;-3.210;2023-11-18T09:53:05;95316.44;;;12.72;90.90
80988;BME280;70452;39.386;-3.210;2023-11-18T09:56:10;95312.88;;;12.82;94.63
80988;BME280;70452;39.386;-3.210;2023-11-18T09:58:59;95319.16;;;12.62;92.11
80988;BME280;70452;39.386;-3.210;2023-11-18T10:01:49;95311.84;;;13.14;90.99
80988;BME280;70452;39.386;-3.210;2023-11-18T10:04:23;95312.66;;;12.99;89.53
80988;BME280;70452;39.386;-3.210;2023-11-18T10:07:10;95315.13;;;13.21;88.60
80988;BME280;70452;39.386;-3.210;2023-11-18T10:09:45;95311.59;;;13.16;89.29
80988;BME280;70452;39.386;-3.210;2023-11-18T10:12:33;95317.63;;;13.54;87.78
80988;BME280;70452;39.386;-3.210;2023-11-18T10:15:08;95311.84;;;13.19;89.10
80988;BME280;70452;39.386;-3.210;2023-11-18T10:17:45;95315.94;;;13.11;89.38
80988;BME280;70452;39.386;-3.210;2023-11-18T10:20:49;95311.03;;;13.13;89.70
80988;BME280;70452;39.386;-3.210;2023-11-18T10:23:26;95303.91;;;13.18;89.43
80988;BME280;70452;39.386;-3.210;2023-11-18T10:26:07;95305.03;;;13.63;89.66
80988;BME280;70452;39.386;-3.210;2023-11-18T10:28:39;95302.00;;;13.64;88.34
80988;BME280;70452;39.386;-3.210;2023-11-18T10:31:22;95302.81;;;13.65;88.65
80988;BME280;70452;39.386;-3.210;2023-11-18T10:33:55;95303.31;;;14.03;87.21
80988;BME280;70452;39.386;-3.210;2023-11-18T10:36:22;95293.44;;;14.07;86.65
80988;BME280;70452;39.386;-3.210;2023-11-18T10:38:52;95291.22;;;14.14;86.77
80988;BME280;70452;39.386;-3.210;2023-11-18T10:41:33;95287.94;;;14.12;86.65
80988;BME280;70452;39.386;-3.210;2023-11-18T10:44:18;95288.97;;;14.26;86.53
80988;BME280;70452;39.386;-3.210;2023-11-18T10:47:00;95287.31;;;14.36;86.99
80988;BME280;70452;39.386;-3.210;2023-11-18T10:49:27;95275.97;;;14.53;87.00
80988;BME280;70452;39.386;-3.210;2023-11-18T10:52:15;95274.03;;;14.63;85.38
80988;BME280;70452;39.386;-3.210;2023-11-18T10:55:01;95276.56;;;14.44;86.87
80988;BME280;70452;39.386;-3.210;2023-11-18T10:57:40;95276.53;;;14.60;85.84
80988;BME280;70452;39.386;-3.210;2023-11-18T11:00:14;95270.84;;;14.91;84.94
80988;BME280;70452;39.386;-3.210;2023-11-18T11:03:08;95268.47;;;14.74;85.44
80988;BME280;70452;39.386;-3.210;2023-11-18T11:05:45;95262.88;;;14.94;85.12
80988;BME280;70452;39.386;-3.210;2023-11-18T11:08:22;95256.75;;;15.08;84.91
80988;BME280;70452;39.386;-3.210;2023-11-18T11:10:56;95254.72;;;15.18;86.78
80988;BME280;70452;39.386;-3.210;2023-11-18T11:13:43;95260.13;;;15.29;84.92
80988;BME280;70452;39.386;-3.210;2023-11-18T11:16:16;95254.13;;;15.27;82.63
80988;BME280;70452;39.386;-3.210;2023-11-18T11:18:59;95258.16;;;15.34;82.72
80988;BME280;70452;39.386;-3.210;2023-11-18T11:21:43;95256.81;;;15.32;82.69
80988;BME280;70452;39.386;-3.210;2023-11-18T11:27:23;95244.00;;;15.51;82.46
80988;BME280;70452;39.386;-3.210;2023-11-18T11:30:12;95247.41;;;15.67;82.59
80988;BME280;70452;39.386;-3.210;2023-11-18T11:33:17;95241.63;;;15.69;81.17
80988;BME280;70452;39.386;-3.210;2023-11-18T11:35:55;95245.97;;;16.04;81.44
80988;BME280;70452;39.386;-3.210;2023-11-18T11:38:55;95227.44;;;16.34;79.68
80988;BME280;70452;39.386;-3.210;2023-11-18T11:41:25;95233.44;;;16.17;78.28
80988;BME280;70452;39.386;-3.210;2023-11-18T11:44:03;95226.84;;;15.94;79.27
80988;BME280;70452;39.386;-3.210;2023-11-18T11:46:44;95223.84;;;16.15;78.61
80988;BME280;70452;39.386;-3.210;2023-11-18T11:49:16;95223.72;;;16.25;79.04
80988;BME280;70452;39.386;-3.210;2023-11-18T11:52:09;95227.81;;;16.46;77.47
80988;BME280;70452;39.386;-3.210;2023-11-18T11:54:49;95221.44;;;16.51;76.99
80988;BME280;70452;39.386;-3.210;2023-11-18T11:57:24;95216.03;;;16.65;78.52
80988;BME280;70452;39.386;-3.210;2023-11-18T11:59:58;95208.59;;;16.84;83.00
80988;BME280;70452;39.386;-3.210;2023-11-18T12:02:51;95201.44;;;16.83;76.18
80988;BME280;70452;39.386;-3.210;2023-11-18T12:05:34;95210.38;;;16.94;75.02
80988;BME280;70452;39.386;-3.210;2023-11-18T12:08:00;95201.91;;;16.91;74.36
80988;BME280;70452;39.386;-3.210;2023-11-18T12:10:40;95201.47;;;17.02;73.88
80988;BME280;70452;39.386;-3.210;2023-11-18T12:13:25;95210.31;;;16.99;72.54
80988;BME280;70452;39.386;-3.210;2023-11-18T12:15:55;95203.75;;;17.14;72.59
80988;BME280;70452;39.386;-3.210;2023-11-18T12:18:29;95214.00;;;17.09;72.18
80988;BME280;70452;39.386;-3.210;2023-11-18T12:21:11;95201.66;;;17.06;72.34
80988;BME280;70452;39.386;-3.210;2023-11-18T12:24:17;95198.41;;;17.04;71.12
80988;BME280;70452;39.386;-3.210;2023-11-18T12:26:58;95199.38;;;17.27;71.08
80988;BME280;70452;39.386;-3.210;2023-11-18T12:29:54;95197.84;;;17.54;70.67
80988;BME280;70452;39.386;-3.210;2023-11-18T12:41:02;95193.34;;;17.72;68.12
80988;BME280;70452;39.386;-3.210;2023-11-18T12:43:49;95193.88;;;17.74;67.46
80988;BME280;70452;39.386;-3.210;2023-11-18T12:49:12;95189.47;;;17.59;68.63
80988;BME280;70452;39.386;-3.210;2023-11-18T12:51:43;95187.22;;;17.61;68.36
80988;BME280;70452;39.386;-3.210;2023-11-18T12:54:12;95192.94;;;17.65;68.85
80988;BME280;70452;39.386;-3.210;2023-11-18T12:57:02;95182.34;;;17.72;66.85
80988;BME280;70452;39.386;-3.210;2023-11-18T12:59:43;95171.81;;;17.74;68.06
80988;BME280;70452;39.386;-3.210;2023-11-18T13:02:15;95175.91;;;17.76;67.75
80988;BME280;70452;39.386;-3.210;2023-11-18T13:04:49;95177.72;;;17.67;66.84
80988;BME280;70452;39.386;-3.210;2023-11-18T13:07:42;95167.53;;;17.68;67.01
80988;BME280;70452;39.386;-3.210;2023-11-18T13:10:39;95164.06;;;17.76;67.89
80988;BME280;70452;39.386;-3.210;2023-11-18T13:13:12;95165.44;;;17.92;67.38
80988;BME280;70452;39.386;-3.210;2023-11-18T13:15:44;95153.59;;;18.06;66.51
80988;BME280;70452;39.386;-3.210;2023-11-18T13:18:16;95154.09;;;18.08;65.62
80988;BME280;70452;39.386;-3.210;2023-11-18T13:20:57;95162.25;;;18.13;67.39
80988;BME280;70452;39.386;-3.210;2023-11-18T13:23:33;95156.00;;;18.21;66.43
80988;BME280;70452;39.386;-3.210;2023-11-18T13:26:13;95149.59;;;18.26;67.89
80988;BME280;70452;39.386;-3.210;2023-11-18T13:28:43;95154.16;;;18.16;66.95
80988;BME280;70452;39.386;-3.210;2023-11-18T13:31:16;95149.88;;;18.24;66.11
80988;BME280;70452;39.386;-3.210;2023-11-18T13:33:52;95148.63;;;18.30;65.48
80988;BME280;70452;39.386;-3.210;2023-11-18T13:36:35;95136.38;;;18.36;64.67
80988;BME280;70452;39.386;-3.210;2023-11-18T13:39:14;95141.78;;;18.42;64.08
80988;BME280;70452;39.386;-3.210;2023-11-18T13:42:25;95139.22;;;18.45;63.59
80988;BME280;70452;39.386;-3.210;2023-11-18T13:45:05;95132.06;;;18.30;62.79
80988;BME280;70452;39.386;-3.210;2023-11-18T13:47:41;95139.63;;;18.39;62.51
80988;BME280;70452;39.386;-3.210;2023-11-18T13:50:20;95134.31;;;18.42;62.22
80988;BME280;70452;39.386;-3.210;2023-11-18T13:53:01;95128.91;;;18.37;62.02
80988;BME280;70452;39.386;-3.210;2023-11-18T13:55:38;95135.75;;;18.40;61.59
80988;BME280;70452;39.386;-3.210;2023-11-18T13:58:15;95131.97;;;18.35;61.21
80988;BME280;70452;39.386;-3.210;2023-11-18T14:00:52;95129.41;;;18.39;62.11
80988;BME280;70452;39.386;-3.210;2023-11-18T14:03:23;95125.53;;;18.40;63.91